createdAt,value
2023-03-28T00:01:09.746Z,47.89
2023-03-28T00:03:40.771Z,48.06
2023-03-28T00:06:12.438Z,48.09
2023-03-28T00:08:45.829Z,47.85
2023-03-28T00:11:19.500Z,47.83
2023-03-28T00:13:48.588Z,47.76
2023-03-28T00:16:17.035Z,47.86
2023-03-28T00:18:47.020Z,47.82
2023-03-28T00:21:26.281Z,47.68
2023-03-28T00:23:57.131Z,48.12
2023-03-28T00:26:27.683Z,47.97
2023-03-28T00:28:56.560Z,48.15
2023-03-28T00:31:26.349Z,47.88
2023-03-28T00:34:01.932Z,48.02
2023-03-28T00:36:32.776Z,47.97
2023-03-28T00:39:06.415Z,48.04
2023-03-28T00:41:40.106Z,48.09
2023-03-28T00:44:47.789Z,47.97
2023-03-28T00:47:30.860Z,48.31
2023-03-28T00:50:07.571Z,48.29
2023-03-28T00:52:42.686Z,48.62
2023-03-28T00:55:17.157Z,48.26
2023-03-28T00:57:47.610Z,48.40
2023-03-28T01:00:19.210Z,48.61
2023-03-28T01:02:52.503Z,48.45
2023-03-28T01:05:26.560Z,48.61
2023-03-28T01:07:59.403Z,48.28
2023-03-28T01:10:27.919Z,48.42
2023-03-28T01:12:57.730Z,48.44
2023-03-28T01:15:29.036Z,48.26
2023-03-28T01:18:02.910Z,48.27
2023-03-28T01:21:09.441Z,48.34
2023-03-28T01:24:11.566Z,48.85
2023-03-28T01:26:54.253Z,48.32
2023-03-28T01:30:11.233Z,48.83
2023-03-28T01:33:26.000Z,48.51
2023-03-28T01:36:50.704Z,48.79
2023-03-28T01:39:29.049Z,49.06
2023-03-28T01:42:04.588Z,48.66
2023-03-28T01:44:41.514Z,48.79
2023-03-28T01:47:15.042Z,48.79
2023-03-28T01:49:52.903Z,49.09
2023-03-28T01:52:29.072Z,48.99
2023-03-28T01:55:08.620Z,48.86
2023-03-28T01:57:44.436Z,48.80
2023-03-28T02:00:20.107Z,48.81
2023-03-28T02:02:58.985Z,49.42
2023-03-28T02:05:34.197Z,49.43
2023-03-28T02:08:05.896Z,49.59
2023-03-28T02:10:38.414Z,49.30
2023-03-28T02:13:13.751Z,49.78
2023-03-28T02:15:47.042Z,49.48
2023-03-28T02:18:21.597Z,49.31
2023-03-28T02:20:55.045Z,49.64
2023-03-28T02:23:28.796Z,49.45
2023-03-28T02:25:59.004Z,49.72
2023-03-28T02:28:27.710Z,49.26
2023-03-28T02:30:56.412Z,49.61
2023-03-28T02:33:41.906Z,49.08
2023-03-28T02:36:25.922Z,49.52
2023-03-28T02:39:22.996Z,49.38
2023-03-28T02:42:08.583Z,49.31
2023-03-28T02:45:09.246Z,49.11
2023-03-28T02:47:41.837Z,49.15
2023-03-28T02:50:23.253Z,49.66
2023-03-28T02:52:58.636Z,49.63
2023-03-28T02:55:34.745Z,49.51
2023-03-28T02:58:10.332Z,49.42
2023-03-28T03:00:40.239Z,49.57
2023-03-28T03:03:10.681Z,49.50
2023-03-28T03:05:39.599Z,49.53
2023-03-28T03:08:11.696Z,49.35
2023-03-28T03:10:40.065Z,49.17
2023-03-28T03:13:09.834Z,49.36
2023-03-28T03:15:38.270Z,49.40
2023-03-28T03:18:06.792Z,49.30
2023-03-28T03:20:35.136Z,49.16
2023-03-28T03:23:03.511Z,49.19
2023-03-28T03:25:32.337Z,49.00
2023-03-28T03:28:00.664Z,49.33
2023-03-28T03:30:30.535Z,48.96
2023-03-28T03:33:00.555Z,49.05
2023-03-28T03:35:33.421Z,49.23
2023-03-28T03:38:02.060Z,48.88
2023-03-28T03:40:32.815Z,48.90
2023-03-28T03:43:01.174Z,48.95
2023-03-28T03:45:30.986Z,49.06
2023-03-28T03:47:59.401Z,49.09
2023-03-28T03:50:27.830Z,49.25
2023-03-28T03:52:56.605Z,49.26
2023-03-28T03:55:26.637Z,48.99
2023-03-28T03:57:54.950Z,49.20
2023-03-28T04:00:23.507Z,49.02
2023-03-28T04:02:56.459Z,48.99
2023-03-28T04:05:25.093Z,49.02
2023-03-28T04:07:53.477Z,48.90
2023-03-28T04:10:21.788Z,49.09
2023-03-28T04:12:50.081Z,49.03
2023-03-28T04:15:21.366Z,48.80
2023-03-28T04:17:50.497Z,48.81
2023-03-28T04:20:21.006Z,49.05
2023-03-28T04:22:50.323Z,48.82
2023-03-28T04:25:18.861Z,49.18
2023-03-28T04:27:48.903Z,48.90
2023-03-28T04:30:18.022Z,49.17
2023-03-28T04:32:49.598Z,48.96
2023-03-28T04:35:22.614Z,49.01
2023-03-28T04:37:51.643Z,49.35
2023-03-28T04:40:21.734Z,49.08
2023-03-28T04:42:50.143Z,49.26
2023-03-28T04:45:22.103Z,49.28
2023-03-28T04:47:50.624Z,49.62
2023-03-28T04:50:20.606Z,49.80
2023-03-28T04:52:48.917Z,49.44
2023-03-28T04:55:20.304Z,49.78
2023-03-28T04:57:48.613Z,49.42
2023-03-28T05:00:18.066Z,49.66
2023-03-28T05:02:47.878Z,49.80
2023-03-28T05:05:20.823Z,49.59
2023-03-28T05:07:49.229Z,49.84
2023-03-28T05:10:17.829Z,49.35
2023-03-28T05:12:46.120Z,50.00
2023-03-28T05:15:22.893Z,49.86
2023-03-28T05:17:51.997Z,50.14
2023-03-28T05:20:21.800Z,49.89
2023-03-28T05:22:50.092Z,50.20
2023-03-28T05:25:18.759Z,50.17
2023-03-28T05:27:47.452Z,50.06
2023-03-28T05:30:16.100Z,50.32
2023-03-28T05:32:44.648Z,50.33
2023-03-28T05:35:15.771Z,49.99
2023-03-28T05:37:47.016Z,50.60
2023-03-28T05:40:16.780Z,50.77
2023-03-28T05:42:45.860Z,50.63
2023-03-28T05:45:14.325Z,50.53
2023-03-28T05:47:42.761Z,50.82
2023-03-28T05:50:11.931Z,50.63
2023-03-28T05:52:40.311Z,50.74
2023-03-28T05:55:10.873Z,50.60
2023-03-28T05:57:39.242Z,50.57
2023-03-28T06:00:11.830Z,50.42
2023-03-28T06:02:40.826Z,50.83
2023-03-28T06:05:10.487Z,50.91
2023-03-28T06:07:42.853Z,50.23
2023-03-28T06:10:15.646Z,50.62
2023-03-28T06:12:44.074Z,50.05
2023-03-28T06:15:15.605Z,50.33
2023-03-28T06:17:43.917Z,50.46
2023-03-28T06:20:13.441Z,50.28
2023-03-28T06:22:41.818Z,50.57
2023-03-28T06:25:12.308Z,50.44
2023-03-28T06:27:40.922Z,49.99
2023-03-28T06:30:10.821Z,49.95
2023-03-28T06:32:39.245Z,50.10
2023-03-28T06:35:09.770Z,50.04
2023-03-28T06:37:38.106Z,49.91
2023-03-28T06:40:07.938Z,50.32
2023-03-28T06:42:37.777Z,49.85
2023-03-28T06:45:07.140Z,49.96
2023-03-28T06:47:35.581Z,49.61
2023-03-28T06:50:03.964Z,49.50
2023-03-28T06:52:32.283Z,49.10
2023-03-28T06:55:00.584Z,49.23
2023-03-28T06:57:28.927Z,49.18
2023-03-28T06:59:58.606Z,48.70
2023-03-28T07:02:27.104Z,48.71
2023-03-28T07:04:55.658Z,48.79
2023-03-28T07:07:23.996Z,48.82
2023-03-28T07:09:54.703Z,48.76
2023-03-28T07:12:23.193Z,48.88
2023-03-28T07:14:51.517Z,48.56
2023-03-28T07:17:21.328Z,48.75
2023-03-28T07:19:51.267Z,48.89
2023-03-28T07:22:19.581Z,48.79
2023-03-28T07:24:47.934Z,48.56
2023-03-28T07:27:17.193Z,48.17
2023-03-28T07:29:45.672Z,48.38
2023-03-28T07:32:14.258Z,47.95
2023-03-28T07:34:44.134Z,47.95
2023-03-28T07:37:12.412Z,48.08
2023-03-28T07:39:43.707Z,47.78
2023-03-28T07:42:13.188Z,48.04
2023-03-28T07:44:42.489Z,47.71
2023-03-28T07:47:12.126Z,47.76
2023-03-28T07:49:41.041Z,47.98
2023-03-28T07:52:11.705Z,47.52
2023-03-28T07:54:40.004Z,47.63
2023-03-28T07:57:08.376Z,47.89
2023-03-28T07:59:36.851Z,48.07
2023-03-28T08:02:05.185Z,48.09
2023-03-28T08:04:33.741Z,48.24
2023-03-28T08:07:02.322Z,47.69
2023-03-28T08:09:32.076Z,48.14
2023-03-28T08:12:00.520Z,47.78
2023-03-28T08:14:28.971Z,47.93
2023-03-28T08:16:57.326Z,47.75
2023-03-28T08:19:25.687Z,47.55
2023-03-28T08:21:53.983Z,47.36
2023-03-28T08:24:34.919Z,47.37
2023-03-28T08:27:05.812Z,47.11
2023-03-28T08:29:34.069Z,47.28
2023-03-28T08:32:03.679Z,47.41
2023-03-28T08:34:31.994Z,47.30
2023-03-28T08:37:00.728Z,47.40
2023-03-28T08:39:29.205Z,47.51
2023-03-28T08:42:54.513Z,46.91
2023-03-28T08:45:44.797Z,46.60
2023-03-28T08:48:24.020Z,46.59
2023-03-28T08:50:58.864Z,46.22
2023-03-28T08:53:34.430Z,45.64
2023-03-28T08:56:06.182Z,45.92
2023-03-28T08:58:42.601Z,45.68
2023-03-28T09:01:12.080Z,45.68
2023-03-28T09:03:40.902Z,45.03
2023-03-28T09:06:23.974Z,44.60
2023-03-28T09:09:35.902Z,44.65
2023-03-28T09:12:19.534Z,43.93
2023-03-28T09:15:16.260Z,44.43
2023-03-28T09:17:59.952Z,43.92
2023-03-28T09:20:35.024Z,44.16
2023-03-28T09:23:56.550Z,43.28
2023-03-28T09:26:29.528Z,42.81
2023-03-28T09:29:02.331Z,42.66
2023-03-28T09:31:41.873Z,42.16
2023-03-28T09:34:20.078Z,41.15
2023-03-28T09:36:54.131Z,40.80
2023-03-28T09:39:35.344Z,40.51
2023-03-28T09:42:10.135Z,40.61
2023-03-28T09:44:54.131Z,40.24
2023-03-28T09:47:24.795Z,40.15
2023-03-28T09:50:02.206Z,39.56
2023-03-28T09:52:34.195Z,39.89
2023-03-28T09:55:03.229Z,39.41
2023-03-28T09:58:04.072Z,39.30
2023-03-28T10:00:37.983Z,38.29
2023-03-28T10:03:23.138Z,39.14
2023-03-28T10:05:52.815Z,38.49
2023-03-28T10:08:26.637Z,36.87
2023-03-28T10:11:02.164Z,35.82
2023-03-28T10:13:43.913Z,36.16
2023-03-28T10:16:14.953Z,36.79
2023-03-28T10:18:45.085Z,35.86
2023-03-28T10:21:17.338Z,35.79
2023-03-28T10:23:51.731Z,35.69
2023-03-28T10:26:26.025Z,35.95
2023-03-28T10:28:57.551Z,35.87
2023-03-28T10:31:30.599Z,35.41
2023-03-28T10:34:02.725Z,35.23
2023-03-28T10:36:34.315Z,34.97
2023-03-28T10:39:22.973Z,34.86
2023-03-28T10:41:56.201Z,35.32
2023-03-28T10:44:30.790Z,35.42
2023-03-28T10:47:03.461Z,35.32
2023-03-28T10:49:44.423Z,35.73
2023-03-28T10:52:23.919Z,35.38
2023-03-28T10:55:04.878Z,35.39
2023-03-28T10:57:41.487Z,36.22
2023-03-28T11:00:16.728Z,36.52
2023-03-28T11:02:57.738Z,36.45
2023-03-28T11:05:36.221Z,36.64
2023-03-28T11:08:24.094Z,36.58
2023-03-28T11:11:03.151Z,36.46
2023-03-28T11:13:41.813Z,35.26
2023-03-28T11:16:19.886Z,35.34
2023-03-28T11:19:05.740Z,36.26
2023-03-28T11:21:45.408Z,36.11
2023-03-28T11:24:28.957Z,35.13
2023-03-28T11:27:15.526Z,34.49
2023-03-28T11:29:49.331Z,34.98
2023-03-28T11:32:22.628Z,35.53
2023-03-28T11:35:04.442Z,35.46
2023-03-28T11:37:38.923Z,35.68
2023-03-28T11:40:17.261Z,35.97
2023-03-28T11:42:50.196Z,36.65
2023-03-28T11:45:37.930Z,36.60
2023-03-28T11:48:22.619Z,37.14
2023-03-28T11:51:04.357Z,35.29
2023-03-28T11:53:40.791Z,34.03
2023-03-28T11:56:25.374Z,34.25
2023-03-28T11:59:02.234Z,34.41
2023-03-28T12:01:33.370Z,34.46
2023-03-28T12:04:08.883Z,33.99
2023-03-28T12:06:52.071Z,33.50
2023-03-28T12:09:32.522Z,32.89
2023-03-28T12:12:09.824Z,33.08
2023-03-28T12:14:48.406Z,33.09
2023-03-28T12:17:23.071Z,33.34
2023-03-28T12:19:51.454Z,32.94
2023-03-28T12:22:26.765Z,33.19
2023-03-28T12:25:04.418Z,32.60
2023-03-28T12:27:44.027Z,32.42
2023-03-28T12:30:22.508Z,32.81
2023-03-28T12:33:02.828Z,31.44
2023-03-28T12:35:40.776Z,33.11
2023-03-28T12:38:24.085Z,33.25
2023-03-28T12:41:01.042Z,33.16
2023-03-28T12:43:39.155Z,33.16
2023-03-28T12:46:09.019Z,33.23
2023-03-28T12:48:41.085Z,32.33
2023-03-28T12:51:16.204Z,32.65
2023-03-28T12:54:07.402Z,32.73
2023-03-28T12:56:37.191Z,32.66
2023-03-28T12:59:50.337Z,33.90
2023-03-28T13:02:27.115Z,33.75
2023-03-28T13:05:04.934Z,32.54
2023-03-28T13:08:00.414Z,32.04
2023-03-28T13:10:37.767Z,32.02
2023-03-28T13:13:23.022Z,31.93
2023-03-28T13:16:03.408Z,31.71
2023-03-28T13:18:36.490Z,31.35
2023-03-28T13:21:07.316Z,30.92
2023-03-28T13:23:47.905Z,30.99
2023-03-28T13:26:16.249Z,30.83
2023-03-28T13:28:48.860Z,30.56
2023-03-28T13:31:25.674Z,31.37
2023-03-28T13:33:58.525Z,31.60
2023-03-28T13:36:30.858Z,31.54
2023-03-28T13:39:21.373Z,31.99
2023-03-28T13:42:01.128Z,32.34
2023-03-28T13:44:38.078Z,32.39
2023-03-28T13:47:07.029Z,32.61
2023-03-28T13:49:46.248Z,31.11
2023-03-28T13:52:19.482Z,30.68
2023-03-28T13:54:54.104Z,31.19
2023-03-28T13:57:25.995Z,31.38
2023-03-28T13:59:58.452Z,30.69
2023-03-28T14:02:38.464Z,30.92
2023-03-28T14:05:21.143Z,30.99
2023-03-28T14:07:51.493Z,30.34
2023-03-28T14:10:29.862Z,30.64
2023-03-28T14:13:01.544Z,30.55
2023-03-28T14:15:38.607Z,30.83
2023-03-28T14:18:09.283Z,30.92
2023-03-28T14:20:40.253Z,30.86
2023-03-28T14:23:09.017Z,30.55
2023-03-28T14:25:37.420Z,30.07
2023-03-28T14:28:10.493Z,29.74
2023-03-28T14:30:42.868Z,29.83
2023-03-28T14:33:21.176Z,29.96
2023-03-28T14:36:02.744Z,30.06
2023-03-28T14:38:38.494Z,30.52
2023-03-28T14:41:21.403Z,30.19
2023-03-28T14:43:54.107Z,30.28
2023-03-28T14:46:27.562Z,29.75
2023-03-28T14:48:58.968Z,29.59
2023-03-28T14:51:28.178Z,29.91
2023-03-28T14:53:58.133Z,29.67
2023-03-28T14:56:29.008Z,29.58
2023-03-28T14:59:02.451Z,29.53
2023-03-28T15:01:34.240Z,29.52
2023-03-28T15:04:06.681Z,29.09
2023-03-28T15:06:36.501Z,29.23
2023-03-28T15:09:12.447Z,29.22
2023-03-28T15:11:43.821Z,29.08
2023-03-28T15:14:30.445Z,28.87
2023-03-28T15:17:01.457Z,28.43
2023-03-28T15:19:37.263Z,28.18
2023-03-28T15:22:11.239Z,28.23
2023-03-28T15:24:40.693Z,28.82
2023-03-28T15:27:12.268Z,28.43
2023-03-28T15:29:41.104Z,28.27
2023-03-28T15:32:18.261Z,28.41
2023-03-28T15:34:49.075Z,28.40
2023-03-28T15:37:22.221Z,28.58
2023-03-28T15:39:52.621Z,28.42
2023-03-28T15:42:37.852Z,28.62
2023-03-28T15:45:37.398Z,28.75
2023-03-28T15:48:08.124Z,28.47
2023-03-28T15:50:39.160Z,27.36
2023-03-28T15:53:14.566Z,27.94
2023-03-28T15:55:43.923Z,27.94
2023-03-28T15:58:15.788Z,28.24
2023-03-28T16:00:47.665Z,28.44
2023-03-28T16:03:34.503Z,28.42
2023-03-28T16:06:32.242Z,28.69
2023-03-28T16:09:16.867Z,28.72
2023-03-28T16:11:46.711Z,29.05
2023-03-28T16:14:20.830Z,29.15
2023-03-28T16:16:54.330Z,29.49
2023-03-28T16:19:26.105Z,29.84
2023-03-28T16:21:55.132Z,29.37
2023-03-28T16:24:23.501Z,29.63
2023-03-28T16:26:51.928Z,29.86
2023-03-28T16:29:20.492Z,29.98
2023-03-28T16:31:49.081Z,30.25
2023-03-28T16:34:17.522Z,30.84
2023-03-28T16:36:47.419Z,30.99
2023-03-28T16:39:15.934Z,31.00
2023-03-28T16:41:44.506Z,31.28
2023-03-28T16:44:12.946Z,31.57
2023-03-28T16:46:41.690Z,31.39
2023-03-28T16:49:10.231Z,31.25
2023-03-28T16:51:38.685Z,31.27
2023-03-28T16:54:11.792Z,31.57
2023-03-28T16:56:40.620Z,31.52
2023-03-28T16:59:09.053Z,31.77
2023-03-28T17:01:39.064Z,32.04
2023-03-28T17:04:09.116Z,31.87
2023-03-28T17:06:37.533Z,31.91
2023-03-28T17:09:07.541Z,31.97
2023-03-28T17:11:36.515Z,32.09
2023-03-28T17:14:07.007Z,32.35
2023-03-28T17:16:35.463Z,32.20
2023-03-28T17:19:04.041Z,32.37
2023-03-28T17:21:32.780Z,32.57
2023-03-28T17:24:01.376Z,32.65
2023-03-28T17:26:31.790Z,32.67
2023-03-28T17:29:00.195Z,32.74
2023-03-28T17:31:28.762Z,32.79
2023-03-28T17:33:57.369Z,32.99
2023-03-28T17:36:28.764Z,32.94
2023-03-28T17:38:59.379Z,33.11
2023-03-28T17:41:28.738Z,32.93
2023-03-28T17:43:59.898Z,32.74
2023-03-28T17:46:28.484Z,32.72
2023-03-28T17:48:56.892Z,32.96
2023-03-28T17:51:26.072Z,33.15
2023-03-28T17:53:54.517Z,33.25
2023-03-28T17:56:23.451Z,33.36
2023-03-28T17:58:51.944Z,33.40
2023-03-28T18:01:22.430Z,33.41
2023-03-28T18:03:51.526Z,33.34
2023-03-28T18:06:20.151Z,33.59
2023-03-28T18:08:48.842Z,33.69
2023-03-28T18:11:20.133Z,33.80
2023-03-28T18:13:48.779Z,33.80
2023-03-28T18:16:19.075Z,33.90
2023-03-28T18:18:49.000Z,34.03
2023-03-28T18:21:17.500Z,34.26
2023-03-28T18:23:46.115Z,34.36
2023-03-28T18:26:14.574Z,34.43
2023-03-28T18:28:43.293Z,34.54
2023-03-28T18:31:14.445Z,34.54
2023-03-28T18:33:44.468Z,34.84
2023-03-28T18:36:15.677Z,34.67
2023-03-28T18:38:46.549Z,35.02
2023-03-28T18:41:15.562Z,34.90
2023-03-28T18:43:45.540Z,35.13
2023-03-28T18:46:16.035Z,35.32
2023-03-28T18:48:45.510Z,35.27
2023-03-28T18:51:15.867Z,35.39
2023-03-28T18:53:44.819Z,35.50
2023-03-28T18:56:13.775Z,35.52
2023-03-28T18:58:42.294Z,35.52
2023-03-28T19:01:11.934Z,35.56
2023-03-28T19:03:42.453Z,35.53
2023-03-28T19:06:15.126Z,35.81
2023-03-28T19:08:44.812Z,35.82
2023-03-28T19:11:16.676Z,35.78
2023-03-28T19:13:45.134Z,36.13
2023-03-28T19:16:16.539Z,36.24
2023-03-28T19:18:47.012Z,36.41
2023-03-28T19:21:17.731Z,36.34
2023-03-28T19:23:46.778Z,36.34
2023-03-28T19:26:15.319Z,36.25
2023-03-28T19:28:43.739Z,36.54
2023-03-28T19:31:14.181Z,36.78
2023-03-28T19:33:45.115Z,36.50
2023-03-28T19:36:13.651Z,36.58
2023-03-28T19:38:43.403Z,36.59
2023-03-28T19:41:18.956Z,36.73
2023-03-28T19:43:48.739Z,36.82
2023-03-28T19:46:26.128Z,36.74
2023-03-28T19:48:58.249Z,36.61
2023-03-28T19:51:26.728Z,36.85
2023-03-28T19:53:56.917Z,37.07
2023-03-28T19:56:25.257Z,36.90
2023-03-28T19:58:53.655Z,36.97
2023-03-28T20:01:22.218Z,36.83
2023-03-28T20:03:53.134Z,36.93
2023-03-28T20:06:23.291Z,37.09
2023-03-28T20:08:52.220Z,37.21
2023-03-28T20:11:22.420Z,37.31
2023-03-28T20:13:50.885Z,37.16
2023-03-28T20:16:19.255Z,37.34
2023-03-28T20:18:48.280Z,37.53
2023-03-28T20:21:16.766Z,37.35
2023-03-28T20:23:45.210Z,37.65
2023-03-28T20:26:18.137Z,37.82
2023-03-28T20:28:49.891Z,37.88
2023-03-28T20:31:19.755Z,37.83
2023-03-28T20:33:48.141Z,37.57
2023-03-28T20:36:17.303Z,37.55
2023-03-28T20:38:48.967Z,37.90
2023-03-28T20:41:19.882Z,37.81
2023-03-28T20:43:50.312Z,38.23
2023-03-28T20:46:20.153Z,37.88
2023-03-28T20:48:52.248Z,38.16
2023-03-28T20:51:22.907Z,38.00
2023-03-28T20:53:54.914Z,37.98
2023-03-28T20:56:25.705Z,38.30
2023-03-28T20:58:58.225Z,38.36
2023-03-28T21:01:28.109Z,38.02
2023-03-28T21:04:00.495Z,38.26
2023-03-28T21:06:33.483Z,38.26
2023-03-28T21:09:04.836Z,38.57
2023-03-28T21:11:35.509Z,38.43
2023-03-28T21:14:06.908Z,38.76
2023-03-28T21:16:38.504Z,38.51
2023-03-28T21:19:07.633Z,38.72
2023-03-28T21:21:36.569Z,38.71
2023-03-28T21:24:07.340Z,38.55
2023-03-28T21:26:35.956Z,38.63
2023-03-28T21:29:05.832Z,38.85
2023-03-28T21:31:34.183Z,38.95
2023-03-28T21:34:02.599Z,38.74
2023-03-28T21:36:30.976Z,38.96
2023-03-28T21:38:59.254Z,39.04
2023-03-28T21:41:28.398Z,39.06
2023-03-28T21:44:01.561Z,39.14
2023-03-28T21:46:31.275Z,39.27
2023-03-28T21:49:02.307Z,39.32
2023-03-28T21:51:32.651Z,39.09
2023-03-28T21:54:01.253Z,39.42
2023-03-28T21:56:29.663Z,39.32
2023-03-28T21:58:59.247Z,39.74
2023-03-28T22:01:27.598Z,39.71
2023-03-28T22:03:57.294Z,39.71
2023-03-28T22:06:25.666Z,40.05
2023-03-28T22:08:55.175Z,40.04
2023-03-28T22:11:28.525Z,39.97
2023-03-28T22:14:05.417Z,39.91
2023-03-28T22:16:37.419Z,40.12
2023-03-28T22:19:08.637Z,40.16
2023-03-28T22:21:38.018Z,40.30
2023-03-28T22:24:12.996Z,40.26
2023-03-28T22:26:42.082Z,40.08
2023-03-28T22:29:10.557Z,40.14
2023-03-28T22:31:39.103Z,40.58
2023-03-28T22:34:08.867Z,40.48
2023-03-28T22:36:37.222Z,40.37
2023-03-28T22:39:07.384Z,40.83
2023-03-28T22:41:35.633Z,40.83
2023-03-28T22:44:04.140Z,40.62
2023-03-28T22:46:32.480Z,40.98
2023-03-28T22:49:00.824Z,41.00
2023-03-28T22:51:33.019Z,40.96
2023-03-28T22:54:03.174Z,41.09
2023-03-28T22:56:31.494Z,41.12
2023-03-28T22:59:01.285Z,40.81
2023-03-28T23:01:30.077Z,41.27
2023-03-28T23:04:01.583Z,41.26
2023-03-28T23:06:31.532Z,41.29
2023-03-28T23:08:59.900Z,41.06
2023-03-28T23:11:28.182Z,41.19
2023-03-28T23:13:59.264Z,40.94
2023-03-28T23:16:27.596Z,41.21
2023-03-28T23:18:55.979Z,41.06
2023-03-28T23:21:25.618Z,41.16
2023-03-28T23:23:55.730Z,41.24
2023-03-28T23:26:24.068Z,41.51
2023-03-28T23:28:52.771Z,41.39
2023-03-28T23:31:21.126Z,41.14
2023-03-28T23:33:49.616Z,41.17
2023-03-28T23:36:20.596Z,41.49
2023-03-28T23:38:50.074Z,41.47
2023-03-28T23:41:19.796Z,41.51
2023-03-28T23:43:50.525Z,41.22
2023-03-28T23:46:22.389Z,41.28
2023-03-28T23:48:50.713Z,41.46
2023-03-28T23:51:19.076Z,41.31
2023-03-28T23:53:50.054Z,41.44
2023-03-28T23:56:19.760Z,41.28
2023-03-28T23:58:48.027Z,41.14
